createdAt,value
2018-12-15T00:00:11.088Z,28.55
2018-12-15T00:00:45.674Z,27.45
2018-12-15T00:01:20.328Z,27.67
2018-12-15T00:01:54.907Z,27.48
2018-12-15T00:02:29.648Z,27.55
2018-12-15T00:03:04.243Z,28.17
2018-12-15T00:03:38.823Z,29.15
2018-12-15T00:04:13.423Z,27.67
2018-12-15T00:04:48.132Z,26.68
2018-12-15T00:05:22.785Z,27.60
2018-12-15T00:05:57.464Z,26.10
2018-12-15T00:06:32.003Z,27.93
2018-12-15T00:07:06.564Z,26.57
2018-12-15T00:07:41.232Z,24.70
2018-12-15T00:08:15.727Z,26.37
2018-12-15T00:08:50.584Z,26.20
2018-12-15T00:09:25.164Z,27.93
2018-12-15T00:09:59.783Z,27.17
2018-12-15T00:10:34.285Z,27.77
2018-12-15T00:11:08.803Z,27.80
2018-12-15T00:11:43.444Z,26.85
2018-12-15T00:12:18.024Z,27.62
2018-12-15T00:12:52.652Z,25.65
2018-12-15T00:13:27.164Z,27.30
2018-12-15T00:14:01.724Z,26.82
2018-12-15T00:14:36.465Z,25.72
2018-12-15T00:15:11.324Z,27.85
2018-12-15T00:15:45.886Z,26.73
2018-12-15T00:16:20.504Z,26.17
2018-12-15T00:16:55.011Z,25.92
2018-12-15T00:17:29.603Z,25.25
2018-12-15T00:18:04.164Z,26.00
2018-12-15T00:18:38.926Z,26.20
2018-12-15T00:19:13.544Z,27.17
2018-12-15T00:19:48.143Z,29.05
2018-12-15T00:20:22.784Z,27.07
2018-12-15T00:20:57.264Z,28.50
2018-12-15T00:21:31.864Z,28.38
2018-12-15T00:22:06.425Z,24.67
2018-12-15T00:22:40.865Z,27.80
2018-12-15T00:23:15.404Z,26.00
2018-12-15T00:23:50.046Z,25.70
2018-12-15T00:24:24.804Z,26.27
2018-12-15T00:24:59.492Z,25.08
2018-12-15T00:25:33.944Z,26.17
2018-12-15T00:26:08.583Z,25.68
2018-12-15T00:26:43.087Z,25.43
2018-12-15T00:27:17.683Z,25.23
2018-12-15T00:27:52.244Z,26.90
2018-12-15T00:28:26.763Z,24.90
2018-12-15T00:29:01.363Z,25.57
2018-12-15T00:29:35.988Z,24.45
2018-12-15T00:30:10.843Z,26.17
2018-12-15T00:30:45.446Z,25.25
2018-12-15T00:31:20.044Z,24.47
2018-12-15T00:31:54.763Z,25.08
2018-12-15T00:32:29.484Z,25.15
2018-12-15T00:33:04.087Z,24.25
2018-12-15T00:33:38.683Z,26.27
2018-12-15T00:34:13.263Z,23.75
2018-12-15T00:34:47.903Z,24.43
2018-12-15T00:35:22.464Z,23.98
2018-12-15T00:35:57.003Z,24.47
2018-12-15T00:36:31.563Z,24.23
2018-12-15T00:37:06.184Z,25.90
2018-12-15T00:37:40.663Z,24.05
2018-12-15T00:38:15.424Z,24.72
2018-12-15T00:38:49.943Z,22.85
2018-12-15T00:39:24.525Z,23.60
2018-12-15T00:39:59.172Z,24.98
2018-12-15T00:40:33.763Z,25.90
2018-12-15T00:41:08.363Z,27.85
2018-12-15T00:41:42.884Z,24.75
2018-12-15T00:42:17.324Z,22.80
2018-12-15T00:42:51.924Z,23.45
2018-12-15T00:43:26.424Z,21.68
2018-12-15T00:44:00.883Z,22.48
2018-12-15T00:44:35.443Z,23.73
2018-12-15T00:45:10.064Z,24.20
2018-12-15T00:45:44.646Z,25.32
2018-12-15T00:46:19.263Z,24.90
2018-12-15T00:46:53.784Z,25.27
2018-12-15T00:47:28.364Z,24.80
2018-12-15T00:48:02.895Z,24.00
2018-12-15T00:48:37.424Z,23.73
2018-12-15T00:49:12.001Z,24.67
2018-12-15T00:49:46.546Z,25.32
2018-12-15T00:50:20.904Z,22.75
2018-12-15T00:50:55.604Z,23.65
2018-12-15T00:51:30.144Z,23.85
2018-12-15T00:52:04.644Z,22.25
2018-12-15T00:52:39.344Z,23.12
2018-12-15T00:53:13.884Z,23.12
2018-12-15T00:53:48.464Z,23.65
2018-12-15T00:54:23.103Z,23.67
2018-12-15T00:54:57.705Z,23.65
2018-12-15T00:55:32.264Z,23.05
2018-12-15T00:56:07.024Z,23.62
2018-12-15T00:56:41.844Z,23.00
2018-12-15T00:57:16.426Z,21.68
2018-12-15T00:57:51.164Z,22.52
2018-12-15T00:58:25.608Z,24.05
2018-12-15T00:59:00.204Z,22.27
2018-12-15T00:59:34.945Z,21.23
2018-12-15T01:00:09.724Z,21.15
2018-12-15T01:00:44.424Z,22.80
2018-12-15T01:01:19.025Z,20.77
2018-12-15T01:01:53.545Z,22.42
2018-12-15T01:02:28.184Z,22.45
2018-12-15T01:03:02.804Z,22.20
2018-12-15T01:03:37.385Z,22.80
2018-12-15T01:04:11.987Z,22.95
2018-12-15T01:04:46.606Z,22.65
2018-12-15T01:05:21.153Z,22.40
2018-12-15T01:05:55.765Z,21.48
2018-12-15T01:06:30.324Z,21.15
2018-12-15T01:07:04.904Z,21.73
2018-12-15T01:07:39.504Z,19.40
2018-12-15T01:08:13.984Z,19.70
2018-12-15T01:08:48.585Z,20.05
2018-12-15T01:09:23.544Z,20.20
2018-12-15T01:09:58.144Z,20.50
2018-12-15T01:10:32.727Z,19.07
2018-12-15T01:11:07.244Z,19.55
2018-12-15T01:11:41.824Z,19.85
2018-12-15T01:12:16.392Z,19.12
2018-12-15T01:12:50.965Z,19.75
2018-12-15T01:13:25.525Z,20.82
2018-12-15T01:14:00.104Z,20.20
2018-12-15T01:14:34.684Z,19.82
2018-12-15T01:15:09.204Z,19.12
2018-12-15T01:15:45.564Z,19.10
2018-12-15T01:16:20.273Z,19.20
2018-12-15T01:16:54.792Z,20.52
2018-12-15T01:17:29.405Z,17.87
2018-12-15T01:18:03.945Z,17.62
2018-12-15T01:18:38.586Z,18.62
2018-12-15T01:19:13.124Z,19.10
2018-12-15T01:19:47.725Z,18.73
2018-12-15T01:20:22.305Z,19.37
2018-12-15T01:20:56.886Z,19.85
2018-12-15T01:21:31.565Z,18.02
2018-12-15T01:22:06.086Z,14.35
2018-12-15T01:22:40.605Z,18.27
2018-12-15T01:23:15.185Z,17.92
2018-12-15T01:23:49.853Z,19.30
2018-12-15T01:24:24.496Z,19.87
2018-12-15T01:24:59.167Z,18.70
2018-12-15T01:25:33.665Z,17.92
2018-12-15T01:26:08.225Z,18.15
2018-12-15T01:26:42.865Z,19.32
2018-12-15T01:27:17.464Z,18.45
2018-12-15T01:27:52.006Z,17.98
2018-12-15T01:28:26.535Z,16.73
2018-12-15T01:29:01.107Z,17.60
2018-12-15T01:29:35.725Z,17.35
2018-12-15T01:30:10.305Z,17.30
2018-12-15T01:30:44.826Z,17.77
2018-12-15T01:31:19.308Z,16.20
2018-12-15T01:31:54.205Z,18.12
2018-12-15T01:32:28.804Z,19.65
2018-12-15T01:33:03.365Z,17.87
2018-12-15T01:33:37.904Z,17.90
2018-12-15T01:34:12.385Z,17.82
2018-12-15T01:34:47.005Z,18.42
2018-12-15T01:35:21.545Z,16.95
2018-12-15T01:35:56.125Z,18.42
2018-12-15T01:36:30.726Z,18.40
2018-12-15T01:37:05.364Z,17.23
2018-12-15T01:37:39.945Z,17.10
2018-12-15T01:38:14.506Z,15.80
2018-12-15T01:38:49.065Z,17.15
2018-12-15T01:39:23.705Z,16.23
2018-12-15T01:39:58.293Z,15.63
2018-12-15T01:40:32.826Z,16.73
2018-12-15T01:41:07.445Z,17.05
2018-12-15T01:41:42.025Z,17.30
2018-12-15T01:42:16.671Z,15.93
2018-12-15T01:42:51.125Z,16.48
2018-12-15T01:43:25.845Z,15.08
2018-12-15T01:44:00.404Z,16.70
2018-12-15T01:44:35.005Z,17.02
2018-12-15T01:45:09.545Z,16.93
2018-12-15T01:45:44.065Z,17.62
2018-12-15T01:46:18.667Z,14.87
2018-12-15T01:46:53.245Z,17.62
2018-12-15T01:47:28.005Z,16.45
2018-12-15T01:48:02.564Z,16.82
2018-12-15T01:48:37.153Z,17.30
2018-12-15T01:49:11.705Z,18.05
2018-12-15T01:49:46.306Z,16.73
2018-12-15T01:50:20.885Z,16.90
2018-12-15T01:50:55.386Z,16.30
2018-12-15T01:51:30.005Z,17.07
2018-12-15T01:52:04.545Z,17.17
2018-12-15T01:52:39.145Z,18.42
2018-12-15T01:53:13.785Z,15.58
2018-12-15T01:53:48.486Z,15.95
2018-12-15T01:54:23.066Z,16.85
2018-12-15T01:54:57.725Z,16.62
2018-12-15T01:55:32.365Z,15.72
2018-12-15T01:56:07.005Z,16.55
2018-12-15T01:56:41.545Z,15.38
2018-12-15T01:57:16.226Z,15.83
2018-12-15T01:57:50.924Z,16.77
2018-12-15T01:58:25.485Z,16.07
2018-12-15T01:59:00.085Z,15.58
2018-12-15T01:59:34.605Z,17.50
2018-12-15T02:00:09.609Z,16.55
2018-12-15T02:00:44.265Z,16.62
2018-12-15T02:01:18.845Z,16.97
2018-12-15T02:01:53.445Z,16.73
2018-12-15T02:02:28.171Z,15.13
2018-12-15T02:03:02.746Z,16.15
2018-12-15T02:03:37.465Z,16.02
2018-12-15T02:04:12.085Z,16.67
2018-12-15T02:04:46.585Z,15.85
2018-12-15T02:05:21.185Z,16.95
2018-12-15T02:05:55.727Z,16.50
2018-12-15T02:06:30.246Z,16.02
2018-12-15T02:07:04.865Z,16.65
2018-12-15T02:07:39.465Z,16.60
2018-12-15T02:08:14.026Z,16.00
2018-12-15T02:08:48.665Z,16.62
2018-12-15T02:09:23.166Z,16.87
2018-12-15T02:09:57.906Z,16.45
2018-12-15T02:10:32.405Z,17.67
2018-12-15T02:11:06.965Z,16.65
2018-12-15T02:11:41.573Z,15.30
2018-12-15T02:12:16.246Z,15.50
2018-12-15T02:12:50.905Z,16.90
2018-12-15T02:13:25.605Z,16.90
2018-12-15T02:14:00.685Z,16.80
2018-12-15T02:14:35.265Z,17.23
2018-12-15T02:15:09.945Z,15.53
2018-12-15T02:15:44.805Z,16.35
2018-12-15T02:16:19.326Z,15.23
2018-12-15T02:16:53.865Z,16.35
2018-12-15T02:17:33.655Z,18.00
2018-12-15T02:18:05.085Z,16.27
2018-12-15T02:18:39.765Z,16.90
2018-12-15T02:19:14.428Z,16.23
2018-12-15T02:19:49.245Z,16.35
2018-12-15T02:20:23.705Z,16.07
2018-12-15T02:20:58.465Z,15.93
2018-12-15T02:21:33.006Z,16.20
2018-12-15T02:22:07.685Z,16.95
2018-12-15T02:22:42.345Z,16.85
2018-12-15T02:23:16.806Z,18.00
2018-12-15T02:23:51.652Z,15.75
2018-12-15T02:24:26.165Z,15.95
2018-12-15T02:25:00.746Z,16.62
2018-12-15T02:25:35.285Z,17.30
2018-12-15T02:26:09.845Z,14.55
2018-12-15T02:26:44.445Z,16.40
2018-12-15T02:27:19.045Z,16.62
2018-12-15T02:27:53.873Z,16.80
2018-12-15T02:28:28.445Z,16.35
2018-12-15T02:29:02.965Z,15.55
2018-12-15T02:29:37.525Z,16.97
2018-12-15T02:30:12.067Z,17.00
2018-12-15T02:30:47.700Z,16.07
2018-12-15T02:31:24.065Z,15.32
2018-12-15T02:31:58.567Z,16.45
2018-12-15T02:32:33.245Z,16.95
2018-12-15T02:33:07.747Z,17.35
2018-12-15T02:33:42.265Z,16.95
2018-12-15T02:34:17.047Z,17.52
2018-12-15T02:34:51.725Z,16.73
2018-12-15T02:35:26.285Z,16.60
2018-12-15T02:36:00.925Z,17.57
2018-12-15T02:36:35.446Z,16.80
2018-12-15T02:37:10.027Z,18.20
2018-12-15T02:37:44.565Z,17.30
2018-12-15T02:38:19.246Z,18.25
2018-12-15T02:38:53.945Z,18.10
2018-12-15T02:39:28.585Z,18.73
2018-12-15T02:40:03.327Z,18.85
2018-12-15T02:40:38.137Z,17.52
2018-12-15T02:41:12.653Z,16.70
2018-12-15T02:41:47.586Z,18.85
2018-12-15T02:42:22.313Z,17.55
2018-12-15T02:42:57.099Z,18.32
2018-12-15T02:43:31.832Z,16.37
2018-12-15T02:44:06.435Z,15.38
2018-12-15T02:44:41.132Z,17.12
2018-12-15T02:45:15.614Z,15.60
2018-12-15T02:45:50.242Z,13.98
2018-12-15T02:46:24.793Z,15.85
2018-12-15T02:46:59.353Z,15.70
2018-12-15T02:47:41.239Z,15.68
2018-12-15T02:48:10.594Z,15.38
2018-12-15T02:48:45.275Z,14.60
2018-12-15T02:49:20.053Z,14.75
2018-12-15T02:49:54.798Z,14.80
2018-12-15T02:50:29.588Z,14.28
2018-12-15T02:51:04.213Z,15.48
2018-12-15T02:51:39.032Z,16.30
2018-12-15T02:52:13.592Z,16.02
2018-12-15T02:52:48.254Z,15.72
2018-12-15T02:53:22.833Z,15.88
2018-12-15T02:53:57.395Z,16.07
2018-12-15T02:54:32.173Z,15.63
2018-12-15T02:55:06.892Z,16.50
2018-12-15T02:55:41.493Z,15.65
2018-12-15T02:56:16.040Z,15.08
2018-12-15T02:56:50.613Z,15.83
2018-12-15T02:57:25.233Z,15.95
2018-12-15T02:57:59.935Z,16.55
2018-12-15T02:58:34.653Z,15.85
2018-12-15T02:59:09.212Z,17.20
2018-12-15T02:59:43.812Z,16.50
2018-12-15T03:00:18.592Z,15.40
2018-12-15T03:00:53.096Z,14.60
2018-12-15T03:01:27.832Z,16.05
2018-12-15T03:02:02.433Z,15.65
2018-12-15T03:02:37.032Z,15.10
2018-12-15T03:03:11.653Z,15.08
2018-12-15T03:03:46.394Z,16.25
2018-12-15T03:04:21.132Z,15.65
2018-12-15T03:04:56.014Z,16.87
2018-12-15T03:05:30.632Z,16.27
2018-12-15T03:06:05.213Z,16.45
2018-12-15T03:06:40.012Z,15.72
2018-12-15T03:07:14.753Z,15.08
2018-12-15T03:07:49.313Z,16.52
2018-12-15T03:08:23.898Z,15.18
2018-12-15T03:08:58.792Z,16.45
2018-12-15T03:09:33.355Z,16.62
2018-12-15T03:10:08.373Z,15.43
2018-12-15T03:10:45.972Z,16.32
2018-12-15T03:11:20.612Z,15.60
2018-12-15T03:11:55.153Z,16.17
2018-12-15T03:12:29.572Z,16.45
2018-12-15T03:13:04.192Z,16.15
2018-12-15T03:13:38.713Z,13.75
2018-12-15T03:14:13.294Z,16.02
2018-12-15T03:14:47.793Z,15.58
2018-12-15T03:15:22.251Z,16.50
2018-12-15T03:15:57.006Z,17.00
2018-12-15T03:16:31.512Z,15.83
2018-12-15T03:17:07.232Z,15.18
2018-12-15T03:17:48.652Z,16.23
2018-12-15T03:18:18.492Z,16.07
2018-12-15T03:18:53.552Z,14.70
2018-12-15T03:19:28.132Z,16.30
2018-12-15T03:20:03.272Z,14.50
2018-12-15T03:20:37.972Z,15.98
2018-12-15T03:21:12.554Z,16.07
2018-12-15T03:21:47.152Z,14.65
2018-12-15T03:22:21.751Z,15.35
2018-12-15T03:22:56.353Z,15.98
2018-12-15T03:23:30.959Z,14.63
2018-12-15T03:24:05.432Z,15.93
2018-12-15T03:24:40.100Z,15.60
2018-12-15T03:25:14.652Z,16.07
2018-12-15T03:25:49.151Z,16.80
2018-12-15T03:26:23.832Z,16.40
2018-12-15T03:26:58.483Z,16.25
2018-12-15T03:27:33.118Z,15.93
2018-12-15T03:28:07.652Z,15.15
2018-12-15T03:28:42.335Z,15.60
2018-12-15T03:29:16.955Z,16.97
2018-12-15T03:29:51.492Z,15.23
2018-12-15T03:30:26.074Z,15.68
2018-12-15T03:31:00.713Z,15.32
2018-12-15T03:31:35.442Z,15.93
2018-12-15T03:32:10.035Z,16.30
2018-12-15T03:32:44.596Z,15.53
2018-12-15T03:33:19.131Z,16.17
2018-12-15T03:33:53.652Z,15.28
2018-12-15T03:34:28.332Z,15.25
2018-12-15T03:35:02.873Z,15.03
2018-12-15T03:35:37.452Z,15.78
2018-12-15T03:36:12.032Z,15.48
2018-12-15T03:36:46.757Z,15.93
2018-12-15T03:37:21.452Z,15.20
2018-12-15T03:37:56.091Z,16.45
2018-12-15T03:38:30.633Z,14.55
2018-12-15T03:39:06.180Z,15.63
2018-12-15T03:39:40.712Z,14.95
2018-12-15T03:40:15.315Z,15.00
2018-12-15T03:40:49.952Z,16.10
2018-12-15T03:41:24.692Z,15.25
2018-12-15T03:41:59.294Z,14.20
2018-12-15T03:42:33.912Z,15.80
2018-12-15T03:43:08.472Z,15.10
2018-12-15T03:43:43.052Z,15.13
2018-12-15T03:44:17.772Z,14.38
2018-12-15T03:44:52.292Z,14.87
2018-12-15T03:45:26.852Z,14.38
2018-12-15T03:46:01.396Z,15.20
2018-12-15T03:46:35.912Z,15.70
2018-12-15T03:47:10.594Z,15.35
2018-12-15T03:47:45.132Z,15.48
2018-12-15T03:48:19.573Z,15.23
2018-12-15T03:48:54.272Z,13.80
2018-12-15T03:49:28.972Z,14.60
2018-12-15T03:50:03.852Z,15.08
2018-12-15T03:50:38.496Z,15.68
2018-12-15T03:51:13.112Z,14.80
2018-12-15T03:51:47.693Z,16.23
2018-12-15T03:52:22.473Z,15.05
2018-12-15T03:52:57.033Z,16.62
2018-12-15T03:53:32.053Z,15.63
2018-12-15T03:54:06.633Z,15.90
2018-12-15T03:54:41.299Z,15.65
2018-12-15T03:55:15.912Z,14.43
2018-12-15T03:55:50.415Z,15.93
2018-12-15T03:56:25.032Z,16.37
2018-12-15T03:56:59.552Z,14.80
2018-12-15T03:57:34.334Z,14.70
2018-12-15T03:58:08.953Z,15.88
2018-12-15T03:58:43.453Z,15.48
2018-12-15T03:59:18.433Z,16.17
2018-12-15T03:59:53.154Z,16.17
2018-12-15T04:00:27.832Z,15.72
2018-12-15T04:01:02.497Z,15.63
2018-12-15T04:01:37.154Z,15.03
2018-12-15T04:02:11.713Z,15.70
2018-12-15T04:02:46.416Z,14.35
2018-12-15T04:03:21.112Z,14.68
2018-12-15T04:03:55.693Z,16.05
2018-12-15T04:04:30.992Z,15.50
2018-12-15T04:05:05.792Z,15.00
2018-12-15T04:05:40.412Z,15.85
2018-12-15T04:06:14.956Z,15.95
2018-12-15T04:06:49.432Z,15.48
2018-12-15T04:07:24.072Z,14.85
2018-12-15T04:07:58.653Z,17.48
2018-12-15T04:08:33.192Z,17.50
2018-12-15T04:09:08.113Z,16.30
2018-12-15T04:09:42.638Z,17.65
2018-12-15T04:10:17.214Z,15.40
2018-12-15T04:10:51.932Z,16.77
2018-12-15T04:11:26.652Z,15.98
2018-12-15T04:12:01.173Z,16.00
2018-12-15T04:12:35.633Z,15.83
2018-12-15T04:13:10.353Z,15.38
2018-12-15T04:13:44.932Z,14.83
2018-12-15T04:14:19.532Z,15.32
2018-12-15T04:14:54.345Z,15.23
2018-12-15T04:15:28.972Z,14.00
2018-12-15T04:16:03.593Z,14.68
2018-12-15T04:16:38.332Z,15.53
2018-12-15T04:17:12.993Z,16.02
2018-12-15T04:17:47.494Z,14.87
2018-12-15T04:18:22.152Z,14.93
2018-12-15T04:18:56.692Z,13.88
2018-12-15T04:19:31.393Z,15.93
2018-12-15T04:20:05.993Z,15.28
2018-12-15T04:20:40.613Z,12.90
2018-12-15T04:21:15.292Z,16.10
2018-12-15T04:21:50.033Z,14.78
2018-12-15T04:22:24.573Z,15.63
2018-12-15T04:22:59.094Z,15.83
2018-12-15T04:23:33.672Z,15.23
2018-12-15T04:24:08.212Z,14.40
2018-12-15T04:24:42.720Z,14.47
2018-12-15T04:25:17.293Z,14.93
2018-12-15T04:25:51.833Z,16.27
2018-12-15T04:26:26.414Z,14.85
2018-12-15T04:27:00.953Z,15.32
2018-12-15T04:27:35.433Z,15.90
2018-12-15T04:28:10.153Z,15.32
2018-12-15T04:28:44.793Z,14.45
2018-12-15T04:29:19.374Z,14.30
2018-12-15T04:29:53.953Z,14.83
2018-12-15T04:30:28.482Z,15.25
2018-12-15T04:31:03.115Z,16.65
2018-12-15T04:31:37.633Z,15.00
2018-12-15T04:32:12.333Z,15.10
2018-12-15T04:32:46.833Z,15.05
2018-12-15T04:33:21.312Z,15.78
2018-12-15T04:33:56.112Z,16.02
2018-12-15T04:34:30.633Z,14.15
2018-12-15T04:35:05.534Z,16.25
2018-12-15T04:35:40.093Z,15.75
2018-12-15T04:36:18.755Z,15.63
2018-12-15T04:36:53.313Z,15.58
2018-12-15T04:37:27.895Z,14.05
2018-12-15T04:38:02.639Z,14.47
2018-12-15T04:38:37.175Z,15.25
2018-12-15T04:39:11.693Z,15.32
2018-12-15T04:39:46.325Z,13.28
2018-12-15T04:40:21.104Z,15.13
2018-12-15T04:40:55.712Z,15.20
2018-12-15T04:41:30.332Z,14.50
2018-12-15T04:42:04.836Z,14.98
2018-12-15T04:42:39.472Z,15.00
2018-12-15T04:43:13.974Z,15.70
2018-12-15T04:43:48.688Z,14.75
2018-12-15T04:44:23.247Z,15.58
2018-12-15T04:44:57.769Z,16.10
2018-12-15T04:45:32.470Z,15.18
2018-12-15T04:46:07.036Z,15.53
2018-12-15T04:46:41.568Z,14.15
2018-12-15T04:47:16.529Z,16.02
2018-12-15T04:47:50.990Z,14.73
2018-12-15T04:48:25.669Z,15.72
2018-12-15T04:49:00.393Z,15.38
2018-12-15T04:49:35.068Z,15.55
2018-12-15T04:50:09.708Z,15.83
2018-12-15T04:50:44.287Z,16.87
2018-12-15T04:51:18.947Z,14.07
2018-12-15T04:51:53.527Z,15.95
2018-12-15T04:52:28.168Z,16.48
2018-12-15T04:53:02.648Z,15.18
2018-12-15T04:53:37.267Z,14.80
2018-12-15T04:54:11.787Z,15.68
2018-12-15T04:54:46.268Z,15.45
2018-12-15T04:55:20.868Z,14.95
2018-12-15T04:56:58.767Z,13.93
2018-12-15T04:57:33.507Z,14.63
2018-12-15T04:58:08.027Z,13.53
2018-12-15T04:58:42.529Z,15.13
2018-12-15T04:59:17.108Z,15.45
2018-12-15T04:59:51.850Z,16.00
2018-12-15T05:00:26.569Z,14.45
2018-12-15T05:01:01.147Z,13.68
2018-12-15T05:01:35.668Z,15.30
2018-12-15T05:02:10.257Z,15.80
2018-12-15T05:02:44.928Z,14.47
2018-12-15T05:03:19.487Z,13.90
2018-12-15T05:03:54.127Z,15.68
2018-12-15T05:04:28.607Z,15.40
2018-12-15T05:05:03.308Z,14.98
2018-12-15T05:05:37.768Z,14.33
2018-12-15T05:06:12.447Z,14.47
2018-12-15T05:06:46.967Z,14.68
2018-12-15T05:07:21.448Z,12.78
2018-12-15T05:07:56.007Z,14.78
2018-12-15T05:08:30.487Z,14.50
2018-12-15T05:09:06.429Z,15.13
2018-12-15T05:09:41.151Z,15.60
2018-12-15T05:10:15.708Z,13.60
2018-12-15T05:10:50.448Z,15.95
2018-12-15T05:11:25.009Z,15.23
2018-12-15T05:11:59.587Z,16.23
2018-12-15T05:12:34.107Z,14.75
2018-12-15T05:13:08.667Z,16.17
2018-12-15T05:13:43.227Z,15.90
2018-12-15T05:14:17.848Z,14.43
2018-12-15T05:14:52.327Z,15.70
2018-12-15T05:15:27.047Z,14.90
2018-12-15T05:16:01.549Z,14.55
2018-12-15T05:16:36.168Z,14.80
2018-12-15T05:17:10.688Z,15.48
2018-12-15T05:17:45.150Z,15.38
2018-12-15T05:18:19.727Z,14.58
2018-12-15T05:18:54.209Z,14.68
2018-12-15T05:19:28.909Z,14.85
2018-12-15T05:20:03.468Z,14.15
2018-12-15T05:20:38.067Z,15.83
2018-12-15T05:21:12.649Z,15.15
2018-12-15T05:21:47.189Z,15.30
2018-12-15T05:22:21.673Z,15.68
2018-12-15T05:22:56.268Z,15.30
2018-12-15T05:23:30.787Z,15.40
2018-12-15T05:24:05.368Z,14.28
2018-12-15T05:24:40.068Z,15.35
2018-12-15T05:25:14.748Z,16.87
2018-12-15T05:25:49.393Z,15.55
2018-12-15T05:26:23.927Z,15.80
2018-12-15T05:26:58.508Z,16.27
2018-12-15T05:27:33.128Z,14.85
2018-12-15T05:28:07.748Z,15.65
2018-12-15T05:28:42.307Z,16.02
2018-12-15T05:29:16.708Z,16.02
2018-12-15T05:29:51.408Z,15.72
2018-12-15T05:30:25.909Z,14.90
2018-12-15T05:31:00.688Z,15.05
2018-12-15T05:31:35.330Z,15.40
2018-12-15T05:32:09.867Z,15.45
2018-12-15T05:32:44.528Z,16.48
2018-12-15T05:33:19.309Z,17.32
2018-12-15T05:33:53.788Z,17.05
2018-12-15T05:34:28.428Z,15.48
2018-12-15T05:35:03.011Z,15.48
2018-12-15T05:35:37.648Z,15.53
2018-12-15T05:36:12.327Z,15.70
2018-12-15T05:36:46.848Z,15.95
2018-12-15T05:37:21.388Z,15.53
2018-12-15T05:37:56.148Z,15.38
2018-12-15T05:38:30.771Z,16.52
2018-12-15T05:39:06.728Z,15.93
2018-12-15T05:39:41.247Z,15.45
2018-12-15T05:40:15.851Z,15.90
2018-12-15T05:40:50.428Z,16.30
2018-12-15T05:41:25.088Z,14.75
2018-12-15T05:41:59.668Z,15.35
2018-12-15T05:42:34.208Z,15.55
2018-12-15T05:43:08.828Z,15.43
2018-12-15T05:43:43.407Z,15.15
2018-12-15T05:44:18.068Z,16.10
2018-12-15T05:44:52.548Z,15.78
2018-12-15T05:45:27.248Z,15.65
2018-12-15T05:46:01.749Z,15.88
2018-12-15T05:46:36.268Z,17.40
2018-12-15T05:47:10.788Z,15.78
2018-12-15T05:47:45.208Z,16.17
2018-12-15T05:48:25.227Z,15.38
2018-12-15T05:48:56.348Z,14.90
2018-12-15T05:49:30.948Z,16.10
2018-12-15T05:50:05.707Z,16.20
2018-12-15T05:50:40.268Z,16.07
2018-12-15T05:51:14.828Z,17.40
2018-12-15T05:51:49.428Z,15.30
2018-12-15T05:52:24.108Z,16.17
2018-12-15T05:52:58.613Z,16.42
2018-12-15T05:53:33.228Z,16.10
2018-12-15T05:54:07.769Z,16.65
2018-12-15T05:54:42.208Z,16.73
2018-12-15T05:55:16.909Z,16.85
2018-12-15T05:55:51.428Z,15.35
2018-12-15T05:56:26.008Z,15.83
2018-12-15T05:57:00.608Z,15.93
2018-12-15T05:57:35.068Z,13.43
2018-12-15T05:58:09.648Z,16.10
2018-12-15T05:58:44.148Z,14.60
2018-12-15T05:59:18.648Z,15.93
2018-12-15T05:59:53.568Z,16.07
2018-12-15T06:00:28.190Z,16.62
2018-12-15T06:01:02.769Z,16.27
2018-12-15T06:01:37.389Z,15.65
2018-12-15T06:02:14.018Z,16.10
2018-12-15T06:02:48.648Z,15.80
2018-12-15T06:03:23.368Z,16.67
2018-12-15T06:03:57.890Z,16.50
2018-12-15T06:04:32.488Z,17.12
2018-12-15T06:05:07.288Z,17.45
2018-12-15T06:05:41.908Z,16.15
2018-12-15T06:06:16.450Z,17.80
2018-12-15T06:06:50.989Z,16.82
2018-12-15T06:07:25.548Z,16.65
2018-12-15T06:08:00.489Z,16.77
2018-12-15T06:08:35.068Z,16.10
2018-12-15T06:09:09.588Z,15.65
2018-12-15T06:09:44.189Z,16.57
2018-12-15T06:10:18.708Z,15.90
2018-12-15T06:10:53.349Z,16.30
2018-12-15T06:11:27.928Z,16.12
2018-12-15T06:12:02.469Z,16.80
2018-12-15T06:12:37.248Z,18.87
2018-12-15T06:13:11.908Z,17.02
2018-12-15T06:13:46.308Z,16.23
2018-12-15T06:14:27.249Z,15.32
2018-12-15T06:15:01.728Z,17.32
2018-12-15T06:15:36.489Z,15.95
2018-12-15T06:16:11.068Z,14.55
2018-12-15T06:16:45.608Z,15.50
2018-12-15T06:17:20.228Z,16.30
2018-12-15T06:17:54.728Z,14.50
2018-12-15T06:18:31.727Z,15.35
2018-12-15T06:19:05.889Z,15.48
2018-12-15T06:19:40.468Z,16.48
2018-12-15T06:20:15.108Z,15.35
2018-12-15T06:20:49.729Z,15.88
2018-12-15T06:21:24.289Z,16.17
2018-12-15T06:21:58.828Z,16.02
2018-12-15T06:22:33.428Z,16.07
2018-12-15T06:23:08.048Z,16.77
2018-12-15T06:23:42.668Z,17.55
2018-12-15T06:24:17.369Z,15.05
2018-12-15T06:24:52.008Z,15.93
2018-12-15T06:25:26.568Z,15.93
2018-12-15T06:26:01.188Z,14.83
2018-12-15T06:26:35.909Z,14.65
2018-12-15T06:27:10.588Z,16.35
2018-12-15T06:27:45.168Z,15.20
2018-12-15T06:28:19.768Z,16.12
2018-12-15T06:28:54.277Z,14.85
2018-12-15T06:29:28.670Z,14.65
2018-12-15T06:30:03.268Z,15.03
2018-12-15T06:30:37.928Z,14.87
2018-12-15T06:31:12.390Z,15.53
2018-12-15T06:31:47.089Z,15.18
2018-12-15T06:32:21.588Z,14.40
2018-12-15T06:32:56.328Z,15.35
2018-12-15T06:33:30.888Z,14.58
2018-12-15T06:34:05.651Z,14.15
2018-12-15T06:34:40.268Z,16.17
2018-12-15T06:35:14.788Z,13.10
2018-12-15T06:35:49.468Z,14.55
2018-12-15T06:36:24.128Z,14.13
2018-12-15T06:36:58.728Z,14.20
2018-12-15T06:37:33.409Z,14.58
2018-12-15T06:38:08.028Z,13.65
2018-12-15T06:38:42.688Z,15.10
2018-12-15T06:39:17.068Z,15.03
2018-12-15T06:39:51.748Z,13.95
2018-12-15T06:40:26.211Z,14.87
2018-12-15T06:41:00.788Z,13.95
2018-12-15T06:41:35.288Z,13.85
2018-12-15T06:42:09.828Z,14.73
2018-12-15T06:42:44.588Z,15.05
2018-12-15T06:43:19.428Z,14.18
2018-12-15T06:43:54.208Z,13.90
2018-12-15T06:44:28.850Z,10.75
2018-12-15T06:45:03.668Z,13.60
2018-12-15T06:45:38.210Z,11.78
2018-12-15T06:46:12.808Z,13.22
2018-12-15T06:46:47.368Z,13.20
2018-12-15T06:47:21.968Z,14.13
2018-12-15T06:47:56.654Z,14.00
2018-12-15T06:48:31.208Z,14.15
2018-12-15T06:49:05.848Z,13.58
2018-12-15T06:49:40.428Z,14.87
2018-12-15T06:50:15.008Z,13.70
2018-12-15T06:50:49.609Z,13.38
2018-12-15T06:51:24.288Z,14.83
2018-12-15T06:51:58.832Z,13.25
2018-12-15T06:52:33.288Z,13.98
2018-12-15T06:53:08.090Z,13.60
2018-12-15T06:53:42.748Z,13.13
2018-12-15T06:54:17.368Z,14.70
2018-12-15T06:54:51.888Z,13.68
2018-12-15T06:55:26.409Z,13.30
2018-12-15T06:56:00.988Z,12.95
2018-12-15T06:56:35.488Z,14.07
2018-12-15T06:57:10.211Z,13.55
2018-12-15T06:57:44.752Z,12.90
2018-12-15T06:58:19.348Z,13.43
2018-12-15T06:58:53.908Z,13.98
2018-12-15T06:59:28.689Z,14.53
2018-12-15T07:00:03.308Z,15.43
2018-12-15T07:00:37.788Z,12.28
2018-12-15T07:01:12.388Z,13.05
2018-12-15T07:01:46.988Z,12.90
2018-12-15T07:02:21.647Z,12.75
2018-12-15T07:02:56.207Z,13.80
2018-12-15T07:03:30.928Z,12.85
2018-12-15T07:04:05.428Z,12.45
2018-12-15T07:04:40.048Z,11.03
2018-12-15T07:05:14.648Z,12.35
2018-12-15T07:05:49.368Z,10.55
2018-12-15T07:06:23.868Z,11.38
2018-12-15T07:06:58.508Z,11.57
2018-12-15T07:07:33.128Z,12.18
2018-12-15T07:08:07.567Z,11.60
2018-12-15T07:08:42.328Z,10.20
2018-12-15T07:09:16.887Z,12.58
2018-12-15T07:09:51.467Z,11.45
2018-12-15T07:10:26.108Z,11.80
2018-12-15T07:11:00.707Z,12.58
2018-12-15T07:11:35.230Z,12.20
2018-12-15T07:12:09.808Z,11.60
2018-12-15T07:12:44.528Z,11.60
2018-12-15T07:13:19.090Z,12.40
2018-12-15T07:13:53.668Z,12.50
2018-12-15T07:14:28.228Z,11.63
2018-12-15T07:15:02.768Z,12.70
2018-12-15T07:15:37.367Z,11.25
2018-12-15T07:16:11.908Z,10.53
2018-12-15T07:16:46.449Z,12.28
2018-12-15T07:17:21.188Z,11.88
2018-12-15T07:17:55.848Z,11.48
2018-12-15T07:18:30.387Z,11.22
2018-12-15T07:19:05.169Z,11.63
2018-12-15T07:19:39.768Z,12.33
2018-12-15T07:20:14.488Z,11.68
2018-12-15T07:20:49.107Z,11.20
2018-12-15T07:21:23.728Z,11.68
2018-12-15T07:21:58.407Z,10.65
2018-12-15T07:22:33.187Z,11.60
2018-12-15T07:23:07.647Z,10.63
2018-12-15T07:23:42.147Z,10.85
2018-12-15T07:24:16.807Z,11.93
2018-12-15T07:24:51.488Z,9.93
2018-12-15T07:25:26.188Z,10.15
2018-12-15T07:26:00.809Z,9.55
2018-12-15T07:26:35.389Z,10.75
2018-12-15T07:27:10.408Z,11.18